createdAt,value
2023-07-02T00:02:06.078Z,5.53
2023-07-02T00:04:32.644Z,6.93
2023-07-02T00:06:59.734Z,8.43
2023-07-02T00:09:26.355Z,5.17
2023-07-02T00:11:52.912Z,6.38
2023-07-02T00:14:19.471Z,4.65
2023-07-02T00:16:47.391Z,8.13
2023-07-02T00:19:17.739Z,4.63
2023-07-02T00:21:44.693Z,4.17
2023-07-02T00:24:11.565Z,7.03
2023-07-02T00:26:39.418Z,7.35
2023-07-02T00:29:07.239Z,7.60
2023-07-02T00:31:34.678Z,7.45
2023-07-02T00:34:05.163Z,9.50
2023-07-02T00:36:32.460Z,4.68
2023-07-02T00:38:59.754Z,5.93
2023-07-02T00:41:26.439Z,9.00
2023-07-02T00:43:55.449Z,5.60
2023-07-02T00:46:23.910Z,7.10
2023-07-02T00:48:52.317Z,6.15
2023-07-02T00:51:22.117Z,5.85
2023-07-02T00:53:50.475Z,9.80
2023-07-02T00:56:17.752Z,12.20
2023-07-02T00:58:49.702Z,6.77
2023-07-02T01:01:17.692Z,7.22
2023-07-02T01:03:54.886Z,3.55
2023-07-02T01:06:27.579Z,6.07
2023-07-02T01:09:02.124Z,5.70
2023-07-02T01:11:32.617Z,4.77
2023-07-02T01:14:23.133Z,7.38
2023-07-02T01:16:51.491Z,4.10
2023-07-02T01:19:26.625Z,6.43
2023-07-02T01:21:53.388Z,5.97
2023-07-02T01:24:22.302Z,10.07
2023-07-02T01:26:49.173Z,6.75
2023-07-02T01:29:20.894Z,5.93
2023-07-02T01:31:48.632Z,5.85
2023-07-02T01:34:15.599Z,5.05
2023-07-02T01:36:42.351Z,6.30
2023-07-02T01:39:09.043Z,8.27
2023-07-02T01:41:43.893Z,9.48
2023-07-02T01:44:10.565Z,7.40
2023-07-02T01:46:37.199Z,8.07
2023-07-02T01:49:03.811Z,10.40
2023-07-02T01:51:30.365Z,9.48
2023-07-02T01:53:56.890Z,6.88
2023-07-02T01:56:23.470Z,9.32
2023-07-02T01:58:50.051Z,11.02
2023-07-02T02:01:16.671Z,10.30
2023-07-02T02:03:43.358Z,5.88
2023-07-02T02:06:10.038Z,8.68
2023-07-02T02:08:36.593Z,8.88
2023-07-02T02:11:03.309Z,9.02
2023-07-02T02:13:29.958Z,6.73
2023-07-02T02:15:56.589Z,8.00
2023-07-02T02:18:23.167Z,8.10
2023-07-02T02:20:50.551Z,8.18
2023-07-02T02:23:17.302Z,7.57
2023-07-02T02:25:43.810Z,6.80
2023-07-02T02:28:10.295Z,7.47
2023-07-02T02:30:38.077Z,8.32
2023-07-02T02:33:04.655Z,8.35
2023-07-02T02:35:31.177Z,8.05
2023-07-02T02:37:57.887Z,11.27
2023-07-02T02:40:24.469Z,10.02
2023-07-02T02:42:50.971Z,11.73
2023-07-02T02:45:17.504Z,9.93
2023-07-02T02:47:44.110Z,8.80
2023-07-02T02:50:13.867Z,10.73
2023-07-02T02:52:40.613Z,9.13
2023-07-02T02:55:08.911Z,9.77
2023-07-02T02:57:35.465Z,6.13
2023-07-02T03:00:02.052Z,8.32
2023-07-02T03:02:29.018Z,8.50
2023-07-02T03:04:57.727Z,10.20
2023-07-02T03:07:24.363Z,11.23
2023-07-02T03:09:50.917Z,9.23
2023-07-02T03:12:17.431Z,6.30
2023-07-02T03:14:44.208Z,5.83
2023-07-02T03:17:10.696Z,10.20
2023-07-02T03:19:37.365Z,8.45
2023-07-02T03:22:03.945Z,12.23
2023-07-02T03:24:30.493Z,9.07
2023-07-02T03:26:57.075Z,7.47
2023-07-02T03:29:23.584Z,10.57
2023-07-02T03:31:50.088Z,8.93
2023-07-02T03:34:16.767Z,8.57
2023-07-02T03:36:43.319Z,12.40
2023-07-02T03:39:10.897Z,10.10
2023-07-02T03:41:37.642Z,8.43
2023-07-02T03:44:04.376Z,6.68
2023-07-02T03:46:32.281Z,8.35
2023-07-02T03:48:59.177Z,7.97
2023-07-02T03:51:25.905Z,9.70
2023-07-02T03:53:52.671Z,8.57
2023-07-02T03:56:19.274Z,7.85
2023-07-02T03:58:45.874Z,5.55
2023-07-02T04:01:14.674Z,7.70
2023-07-02T04:03:50.466Z,10.03
2023-07-02T04:06:17.742Z,8.27
2023-07-02T04:08:44.938Z,10.95
2023-07-02T04:11:12.801Z,8.65
2023-07-02T04:13:40.407Z,11.50
2023-07-02T04:16:07.202Z,12.70
2023-07-02T04:18:34.007Z,10.85
2023-07-02T04:21:02.969Z,10.93
2023-07-02T04:23:29.509Z,10.43
2023-07-02T04:26:12.618Z,7.97
2023-07-02T04:28:43.497Z,10.20
2023-07-02T04:31:10.140Z,12.88
2023-07-02T04:33:37.396Z,11.48
2023-07-02T04:36:05.011Z,8.68
2023-07-02T04:38:31.727Z,14.45
2023-07-02T04:41:06.515Z,14.83
2023-07-02T04:43:34.586Z,10.00
2023-07-02T04:46:01.477Z,11.43
2023-07-02T04:48:28.530Z,13.63
2023-07-02T04:50:55.421Z,10.13
2023-07-02T04:53:21.957Z,12.17
2023-07-02T04:55:48.511Z,9.43
2023-07-02T04:58:15.154Z,12.70
2023-07-02T05:00:41.692Z,13.15
2023-07-02T05:03:08.380Z,15.23
2023-07-02T05:05:35.080Z,13.27
2023-07-02T05:08:01.626Z,14.27
2023-07-02T05:10:28.152Z,12.63
2023-07-02T05:12:54.736Z,14.40
2023-07-02T05:15:21.284Z,11.43
2023-07-02T05:17:47.952Z,15.37
2023-07-02T05:20:14.514Z,8.45
2023-07-02T05:22:41.009Z,15.77
2023-07-02T05:25:07.921Z,11.88
2023-07-02T05:27:34.565Z,9.85
2023-07-02T05:30:01.091Z,11.60
2023-07-02T05:32:27.633Z,12.70
2023-07-02T05:34:54.166Z,11.10
2023-07-02T05:37:20.915Z,13.52
2023-07-02T05:39:47.437Z,10.18
2023-07-02T05:42:13.962Z,10.43
2023-07-02T05:44:40.528Z,10.15
2023-07-02T05:47:07.282Z,13.00
2023-07-02T05:49:34.116Z,12.25
2023-07-02T05:52:00.767Z,12.18
2023-07-02T05:54:27.369Z,10.07
2023-07-02T05:56:53.850Z,11.18
2023-07-02T05:59:20.438Z,11.20
2023-07-02T06:01:47.112Z,12.15
2023-07-02T06:04:13.706Z,13.75
2023-07-02T06:06:40.379Z,14.33
2023-07-02T06:09:06.912Z,14.50
2023-07-02T06:11:33.564Z,12.68
2023-07-02T06:14:52.972Z,11.02
2023-07-02T06:17:19.818Z,12.65
2023-07-02T06:19:46.447Z,11.80
2023-07-02T06:22:13.006Z,11.13
2023-07-02T06:24:39.535Z,11.02
2023-07-02T06:27:06.136Z,10.40
2023-07-02T06:29:32.680Z,7.72
2023-07-02T06:32:00.914Z,10.93
2023-07-02T06:34:27.619Z,9.57
2023-07-02T06:36:54.163Z,8.25
2023-07-02T06:39:20.872Z,12.05
2023-07-02T06:41:47.487Z,8.20
2023-07-02T06:44:14.039Z,8.87
2023-07-02T06:46:40.777Z,7.47
2023-07-02T06:49:07.764Z,9.30
2023-07-02T06:51:35.350Z,10.52
2023-07-02T06:54:01.904Z,9.10
2023-07-02T06:56:28.422Z,7.90
2023-07-02T06:58:55.013Z,8.93
2023-07-02T07:01:21.571Z,9.82
2023-07-02T07:03:48.244Z,8.65
2023-07-02T07:06:14.789Z,6.35
2023-07-02T07:08:41.357Z,5.23
2023-07-02T07:11:07.982Z,9.75
2023-07-02T07:13:34.579Z,8.18
2023-07-02T07:16:01.141Z,9.35
2023-07-02T07:18:29.694Z,7.38
2023-07-02T07:20:57.868Z,7.07
2023-07-02T07:23:24.437Z,8.30
2023-07-02T07:25:51.153Z,8.50
2023-07-02T07:28:17.968Z,10.32
2023-07-02T07:30:44.780Z,8.57
2023-07-02T07:33:11.677Z,8.40
2023-07-02T07:35:38.368Z,6.65
2023-07-02T07:38:04.933Z,10.75
2023-07-02T07:40:31.458Z,5.00
2023-07-02T07:42:57.929Z,5.50
2023-07-02T07:45:24.547Z,9.97
2023-07-02T07:47:51.112Z,10.65
2023-07-02T07:50:17.817Z,7.03
2023-07-02T07:52:44.443Z,12.75
2023-07-02T07:55:11.170Z,10.45
2023-07-02T07:57:38.589Z,7.13
2023-07-02T08:00:09.048Z,4.90
2023-07-02T08:02:35.808Z,6.78
2023-07-02T08:05:03.756Z,6.35
2023-07-02T08:07:30.417Z,6.15
2023-07-02T08:09:56.938Z,8.43
2023-07-02T08:12:23.588Z,5.40
2023-07-02T08:14:50.444Z,7.70
2023-07-02T08:17:16.946Z,6.28
2023-07-02T08:19:43.580Z,9.80
2023-07-02T08:22:10.195Z,6.30
2023-07-02T08:24:36.815Z,6.93
2023-07-02T08:27:06.336Z,9.60
2023-07-02T08:29:33.151Z,9.23
2023-07-02T08:31:59.976Z,6.78
2023-07-02T08:34:26.620Z,7.40
2023-07-02T08:36:53.363Z,5.95
2023-07-02T08:39:19.912Z,5.03
2023-07-02T08:41:48.497Z,7.18
2023-07-02T08:44:22.113Z,7.80
2023-07-02T08:46:51.958Z,6.50
2023-07-02T08:49:18.975Z,6.50
2023-07-02T08:51:46.820Z,8.07
2023-07-02T08:54:13.809Z,4.65
2023-07-02T08:56:40.899Z,6.60
2023-07-02T08:59:09.225Z,6.40
2023-07-02T09:01:56.392Z,7.88
2023-07-02T09:04:27.148Z,5.60
2023-07-02T09:07:07.365Z,5.32
2023-07-02T09:09:34.454Z,8.23
2023-07-02T09:12:01.628Z,4.57
2023-07-02T09:14:32.513Z,5.40
2023-07-02T09:17:17.332Z,8.93
2023-07-02T09:19:52.983Z,6.00
2023-07-02T09:22:19.529Z,5.68
2023-07-02T09:24:59.086Z,5.93
2023-07-02T09:27:44.835Z,4.50
2023-07-02T09:30:18.818Z,3.75
2023-07-02T09:32:47.040Z,4.95
2023-07-02T09:35:15.271Z,3.45
2023-07-02T09:37:46.096Z,3.57
2023-07-02T09:40:13.397Z,3.83
2023-07-02T09:42:41.665Z,5.68
2023-07-02T09:45:09.742Z,2.65
2023-07-02T09:47:42.801Z,3.30
2023-07-02T09:50:11.464Z,3.67
2023-07-02T09:52:38.774Z,3.42
2023-07-02T09:55:05.832Z,4.97
2023-07-02T09:57:32.749Z,4.22
2023-07-02T10:00:01.799Z,2.83
2023-07-02T10:02:28.521Z,3.03
2023-07-02T10:04:56.434Z,2.92
2023-07-02T10:07:30.974Z,2.50
2023-07-02T10:09:58.043Z,3.80
2023-07-02T10:12:31.381Z,3.08
2023-07-02T10:14:59.999Z,2.87
2023-07-02T10:17:30.588Z,4.80
2023-07-02T10:20:02.278Z,4.50
2023-07-02T10:22:29.082Z,2.25
2023-07-02T10:25:03.248Z,3.22
2023-07-02T10:27:48.720Z,1.97
2023-07-02T10:30:15.823Z,3.80
2023-07-02T10:32:45.223Z,1.92
2023-07-02T10:35:17.132Z,2.63
2023-07-02T10:37:44.634Z,5.55
2023-07-02T10:40:12.398Z,3.87
2023-07-02T10:42:50.756Z,2.83
2023-07-02T10:45:17.582Z,4.40
2023-07-02T10:47:44.497Z,4.03
2023-07-02T10:50:18.136Z,3.05
2023-07-02T10:52:44.803Z,1.80
2023-07-02T10:55:11.349Z,4.57
2023-07-02T10:57:38.016Z,2.55
2023-07-02T11:00:06.466Z,3.78
2023-07-02T11:02:39.762Z,5.43
2023-07-02T11:05:07.881Z,5.27
2023-07-02T11:07:34.815Z,9.50
2023-07-02T11:10:03.359Z,2.90
2023-07-02T11:12:33.356Z,4.47
2023-07-02T11:15:14.536Z,4.28
2023-07-02T11:17:43.910Z,2.87
2023-07-02T11:20:12.585Z,3.40
2023-07-02T11:22:40.113Z,3.47
2023-07-02T11:25:23.446Z,5.68
2023-07-02T11:27:57.719Z,3.50
2023-07-02T11:30:33.561Z,4.67
2023-07-02T11:33:11.025Z,4.00
2023-07-02T11:35:37.787Z,3.42
2023-07-02T11:38:09.360Z,3.50
2023-07-02T11:40:35.959Z,4.20
2023-07-02T11:43:05.010Z,3.47
2023-07-02T11:45:31.990Z,4.57
2023-07-02T11:48:01.277Z,6.30
2023-07-02T11:50:28.268Z,4.68
2023-07-02T11:52:57.004Z,3.78
2023-07-02T11:55:23.727Z,3.77
2023-07-02T11:58:00.716Z,3.92
2023-07-02T12:00:28.141Z,5.93
2023-07-02T12:02:54.946Z,3.47
2023-07-02T12:05:26.809Z,3.83
2023-07-02T12:07:53.859Z,3.93
2023-07-02T12:10:20.845Z,3.63
2023-07-02T12:12:47.418Z,4.78
2023-07-02T12:15:16.468Z,3.75
2023-07-02T12:17:43.147Z,5.68
2023-07-02T12:20:10.413Z,6.00
2023-07-02T12:22:37.288Z,2.75
2023-07-02T12:25:04.332Z,5.78
2023-07-02T12:27:31.102Z,3.70
2023-07-02T12:29:57.968Z,3.38
2023-07-02T12:32:24.562Z,5.10
2023-07-02T12:34:51.253Z,3.15
2023-07-02T12:37:20.027Z,5.05
2023-07-02T12:39:49.293Z,6.10
2023-07-02T12:42:15.882Z,4.65
2023-07-02T12:44:42.549Z,3.97
2023-07-02T12:47:35.037Z,4.25
2023-07-02T12:50:02.196Z,5.00
2023-07-02T12:52:30.702Z,4.03
2023-07-02T12:54:57.803Z,5.20
2023-07-02T13:00:00.995Z,5.75
2023-07-02T13:02:30.319Z,3.40
2023-07-02T13:04:57.106Z,3.50
2023-07-02T13:07:25.207Z,4.28
2023-07-02T13:09:51.772Z,8.03
2023-07-02T13:12:19.270Z,4.90
2023-07-02T13:14:45.851Z,5.55
2023-07-02T13:17:12.482Z,4.32
2023-07-02T13:19:39.131Z,4.70
2023-07-02T13:22:06.286Z,5.27
2023-07-02T13:24:38.644Z,4.68
2023-07-02T13:27:10.979Z,2.97
2023-07-02T13:29:37.642Z,3.75
2023-07-02T13:32:04.676Z,4.90
2023-07-02T13:34:31.256Z,5.77
2023-07-02T13:36:57.849Z,4.60
2023-07-02T13:39:24.511Z,6.20
2023-07-02T13:41:51.753Z,5.00
2023-07-02T13:44:18.743Z,6.00
2023-07-02T13:46:46.682Z,3.47
2023-07-02T13:49:13.317Z,4.78
2023-07-02T13:51:39.894Z,5.22
2023-07-02T13:54:06.496Z,3.03
2023-07-02T13:56:33.162Z,4.28
2023-07-02T13:59:02.165Z,4.87
2023-07-02T14:01:29.020Z,4.72
2023-07-02T14:03:55.975Z,4.70
2023-07-02T14:06:22.828Z,5.25
2023-07-02T14:08:49.529Z,4.35
2023-07-02T14:11:16.257Z,3.97
2023-07-02T14:13:42.917Z,4.25
2023-07-02T14:16:09.657Z,6.93
2023-07-02T14:18:36.290Z,5.10
2023-07-02T14:21:05.027Z,4.68
2023-07-02T14:23:31.690Z,6.30
2023-07-02T14:25:58.262Z,5.40
2023-07-02T14:28:27.109Z,4.70
2023-07-02T14:30:59.133Z,6.18
2023-07-02T14:33:26.772Z,4.82
2023-07-02T14:35:53.444Z,3.63
2023-07-02T14:38:20.215Z,3.88
2023-07-02T14:40:48.196Z,5.60
2023-07-02T14:43:14.966Z,4.82
2023-07-02T14:45:49.013Z,6.20
2023-07-02T14:48:16.995Z,6.70
2023-07-02T14:50:45.847Z,4.05
2023-07-02T14:53:12.871Z,5.55
2023-07-02T14:55:40.957Z,6.25
2023-07-02T14:58:08.174Z,4.03
2023-07-02T15:00:36.390Z,4.63
2023-07-02T15:03:03.381Z,4.47
2023-07-02T15:05:30.443Z,3.92
2023-07-02T15:07:57.150Z,6.15
2023-07-02T15:10:23.739Z,3.63
2023-07-02T15:12:50.343Z,4.00
2023-07-02T15:15:17.770Z,5.15
2023-07-02T15:17:44.654Z,5.75
2023-07-02T15:20:11.944Z,3.08
2023-07-02T15:22:38.790Z,6.88
2023-07-02T15:25:06.289Z,4.27
2023-07-02T15:27:32.981Z,6.05
2023-07-02T15:29:59.660Z,3.55
2023-07-02T15:32:26.349Z,4.18
2023-07-02T15:34:53.872Z,4.38
2023-07-02T15:37:20.512Z,6.17
2023-07-02T15:39:47.120Z,3.63
2023-07-02T15:42:13.694Z,5.00
2023-07-02T15:44:40.356Z,3.38
2023-07-02T15:47:07.343Z,4.25
2023-07-02T15:49:34.009Z,3.03
2023-07-02T15:52:00.547Z,6.25
2023-07-02T15:54:27.162Z,4.63
2023-07-02T15:56:53.775Z,3.90
2023-07-02T15:59:20.481Z,3.72
2023-07-02T16:01:50.118Z,4.80
2023-07-02T16:04:17.314Z,4.88
2023-07-02T16:06:45.478Z,2.83
2023-07-02T16:09:12.088Z,4.28
2023-07-02T16:11:42.975Z,5.25
2023-07-02T16:14:16.828Z,5.07
2023-07-02T16:16:46.325Z,6.00
2023-07-02T16:19:16.150Z,3.95
2023-07-02T16:21:43.246Z,5.15
2023-07-02T16:24:21.275Z,3.70
2023-07-02T16:26:48.742Z,4.73
2023-07-02T16:29:16.148Z,5.13
2023-07-02T16:31:49.139Z,4.90
2023-07-02T16:34:18.665Z,5.07
2023-07-02T16:36:46.671Z,8.50
2023-07-02T16:39:15.289Z,3.83
2023-07-02T16:41:49.137Z,5.53
2023-07-02T16:44:36.741Z,4.90
2023-07-02T16:47:03.666Z,6.10
2023-07-02T16:49:30.272Z,5.40
2023-07-02T16:51:57.297Z,3.57
2023-07-02T16:54:25.528Z,5.40
2023-07-02T16:56:54.645Z,8.35
2023-07-02T16:59:23.829Z,5.82
2023-07-02T17:01:54.904Z,4.55
2023-07-02T17:04:23.594Z,3.63
2023-07-02T17:06:53.156Z,3.45
2023-07-02T17:09:33.867Z,4.00
2023-07-02T17:12:03.283Z,4.50
2023-07-02T17:14:34.363Z,5.82
2023-07-02T17:17:05.376Z,5.37
2023-07-02T17:19:34.820Z,4.32
2023-07-02T17:22:06.037Z,3.65
2023-07-02T17:24:35.642Z,7.93
2023-07-02T17:27:03.338Z,4.28
2023-07-02T17:29:33.004Z,5.33
2023-07-02T17:32:02.841Z,4.45
2023-07-02T17:34:30.684Z,5.25
2023-07-02T17:36:59.632Z,5.75
2023-07-02T17:39:27.787Z,8.77
2023-07-02T17:41:55.747Z,3.87
2023-07-02T17:44:28.091Z,6.82
2023-07-02T17:46:57.025Z,8.27
2023-07-02T17:49:25.955Z,4.60
2023-07-02T17:51:52.896Z,6.40
2023-07-02T17:54:20.644Z,7.47
2023-07-02T17:56:48.407Z,7.68
2023-07-02T17:59:16.240Z,8.13
2023-07-02T18:01:44.595Z,6.53
2023-07-02T18:04:12.218Z,5.13
2023-07-02T18:06:42.684Z,9.07
2023-07-02T18:09:10.126Z,5.35
2023-07-02T18:11:38.369Z,7.22
2023-07-02T18:14:06.279Z,5.75
2023-07-02T18:16:33.624Z,6.20
2023-07-02T18:19:00.788Z,6.93
2023-07-02T18:21:27.986Z,4.90
2023-07-02T18:23:54.663Z,6.28
2023-07-02T18:26:21.218Z,5.70
2023-07-02T18:28:47.741Z,6.63
2023-07-02T18:31:14.515Z,7.97
2023-07-02T18:33:41.095Z,6.00
2023-07-02T18:36:12.550Z,5.30
2023-07-02T18:38:39.294Z,5.93
2023-07-02T18:41:12.460Z,6.15
2023-07-02T18:43:39.664Z,7.03
2023-07-02T18:46:06.963Z,9.65
2023-07-02T18:48:33.959Z,7.93
2023-07-02T18:51:00.728Z,6.57
2023-07-02T18:53:27.423Z,9.88
2023-07-02T18:56:03.909Z,6.07
2023-07-02T18:58:34.023Z,8.27
2023-07-02T19:01:06.982Z,10.23
2023-07-02T19:03:33.826Z,7.50
2023-07-02T19:06:11.901Z,8.55
2023-07-02T19:08:38.887Z,8.90
2023-07-02T19:11:07.503Z,8.32
2023-07-02T19:13:39.458Z,6.38
2023-07-02T19:16:06.311Z,6.97
2023-07-02T19:18:33.008Z,7.50
2023-07-02T19:21:01.409Z,7.33
2023-07-02T19:23:32.259Z,7.00
2023-07-02T19:25:59.480Z,7.55
2023-07-02T19:28:26.171Z,8.52
2023-07-02T19:30:57.847Z,6.03
2023-07-02T19:33:25.228Z,5.93
2023-07-02T19:35:52.122Z,8.23
2023-07-02T19:38:18.782Z,6.85
2023-07-02T19:40:53.834Z,6.70
2023-07-02T19:43:20.538Z,7.72
2023-07-02T19:45:47.208Z,6.73
2023-07-02T19:48:15.692Z,7.97
2023-07-02T19:50:42.543Z,4.97
2023-07-02T19:53:09.413Z,7.75
2023-07-02T19:56:01.786Z,9.45
2023-07-02T19:58:36.513Z,7.27
2023-07-02T20:01:03.538Z,6.38
2023-07-02T20:03:33.053Z,8.73
2023-07-02T20:06:00.091Z,8.05
2023-07-02T20:08:27.305Z,7.38
2023-07-02T20:10:53.949Z,9.13
2023-07-02T20:13:20.700Z,7.35
2023-07-02T20:15:48.776Z,4.65
2023-07-02T20:18:16.512Z,6.40
2023-07-02T20:20:43.499Z,8.30
2023-07-02T20:23:10.063Z,5.97
2023-07-02T20:28:08.248Z,6.05
2023-07-02T20:30:34.830Z,5.07
2023-07-02T20:33:04.480Z,6.18
2023-07-02T20:35:31.132Z,7.87
2023-07-02T20:37:57.793Z,6.95
2023-07-02T20:40:24.452Z,5.50
2023-07-02T20:42:53.584Z,7.60
2023-07-02T20:45:22.160Z,8.63
2023-07-02T20:47:48.807Z,8.30
2023-07-02T20:50:16.165Z,4.75
2023-07-02T20:52:45.072Z,7.68
2023-07-02T20:55:11.671Z,5.43
2023-07-02T20:57:38.249Z,7.75
2023-07-02T21:00:12.033Z,8.57
2023-07-02T21:02:43.698Z,6.30
2023-07-02T21:05:11.504Z,8.35
2023-07-02T21:07:38.087Z,6.57
2023-07-02T21:10:04.914Z,6.93
2023-07-02T21:12:31.455Z,9.20
2023-07-02T21:14:58.230Z,13.35
2023-07-02T21:17:24.862Z,5.35
2023-07-02T21:19:51.476Z,6.10
2023-07-02T21:22:18.213Z,7.90
2023-07-02T21:24:49.769Z,10.20
2023-07-02T21:27:16.644Z,10.05
2023-07-02T21:29:43.378Z,7.65
2023-07-02T21:32:10.296Z,7.82
2023-07-02T21:34:37.096Z,8.07
2023-07-02T21:37:06.159Z,9.77
2023-07-02T21:39:32.766Z,8.25
2023-07-02T21:41:59.323Z,13.07
2023-07-02T21:44:25.965Z,9.65
2023-07-02T21:46:53.620Z,10.88
2023-07-02T21:49:20.359Z,11.40
2023-07-02T21:51:46.957Z,16.48
2023-07-02T21:54:13.596Z,8.88
2023-07-02T21:56:40.168Z,11.98
2023-07-02T21:59:06.771Z,7.55
2023-07-02T22:01:33.508Z,12.30
2023-07-02T22:04:01.246Z,12.18
2023-07-02T22:06:28.006Z,9.70
2023-07-02T22:08:54.717Z,10.52
2023-07-02T22:11:24.204Z,15.68
2023-07-02T22:13:55.124Z,14.60
2023-07-02T22:16:22.028Z,9.90
2023-07-02T22:18:49.317Z,15.40
2023-07-02T22:21:17.594Z,13.40
2023-07-02T22:23:46.916Z,10.35
2023-07-02T22:26:13.779Z,8.97
2023-07-02T22:28:40.440Z,7.07
2023-07-02T22:31:07.199Z,9.35
2023-07-02T22:33:33.943Z,11.05
2023-07-02T22:36:00.554Z,13.00
2023-07-02T22:38:27.614Z,11.57
2023-07-02T22:40:54.348Z,11.23
2023-07-02T22:43:20.947Z,10.38
2023-07-02T22:45:47.761Z,13.95
2023-07-02T22:48:14.442Z,10.82
2023-07-02T22:50:41.029Z,14.73
2023-07-02T22:53:07.583Z,12.05
2023-07-02T22:55:34.197Z,10.38
2023-07-02T22:58:02.543Z,12.50
2023-07-02T23:00:29.567Z,11.98
2023-07-02T23:02:56.264Z,10.43
2023-07-02T23:05:23.931Z,14.52
2023-07-02T23:07:50.857Z,10.88
2023-07-02T23:10:17.835Z,8.27
2023-07-02T23:12:50.279Z,7.78
2023-07-02T23:15:19.128Z,9.20
2023-07-02T23:17:53.472Z,9.32
2023-07-02T23:20:21.064Z,11.07
2023-07-02T23:22:51.565Z,11.57
2023-07-02T23:25:23.960Z,10.13
2023-07-02T23:27:54.429Z,12.40
2023-07-02T23:30:26.623Z,9.07
2023-07-02T23:32:54.521Z,10.32
2023-07-02T23:35:21.976Z,10.63
2023-07-02T23:37:51.697Z,8.68
2023-07-02T23:40:19.088Z,10.07
2023-07-02T23:42:46.188Z,13.50
2023-07-02T23:45:14.498Z,6.90
2023-07-02T23:47:42.139Z,11.05
2023-07-02T23:50:11.794Z,11.43
2023-07-02T23:52:39.070Z,15.37
2023-07-02T23:55:08.052Z,10.32
2023-07-02T23:57:35.259Z,11.50
